Time;durP1;ratioP1;P1;durP2;ratioP2;P2;SDS_P1;SDS_P2;PMS_P1;PMS_P2;Temp;Humidity;BMP_temperature;BMP_pressure;BME280_temperature;BME280_humidity;BME280_pressure;Samples;Min_cycle;Max_cycle;Signal;HPM_P1;HPM_P2
2021/08/12 00:01:30;;;;;;;0.30;0.30;;;;;;;;;;5093650;28;20402;-65
2021/08/12 00:03:56;;;;;;;0.30;0.30;;;;;;;;;;5093915;28;20382;-65
2021/08/12 00:06:22;;;;;;;0.30;0.30;;;;;;;;;;5093915;28;20752;-63
2021/08/12 00:08:48;;;;;;;0.30;0.30;;;;;;;;;;5093155;28;20428;-64
2021/08/12 00:11:14;;;;;;;0.30;0.30;;;;;;;;;;5093479;28;20419;-65
2021/08/12 00:13:40;;;;;;;0.30;0.30;;;;;;;;;;5093412;28;20468;-64
2021/08/12 00:16:06;;;;;;;0.30;0.20;;;;;;;;;;5093444;28;20419;-65
2021/08/12 00:18:33;;;;;;;0.30;0.30;;;;;;;;;;5092327;28;20440;-64
2021/08/12 00:20:59;;;;;;;0.30;0.20;;;;;;;;;;5092530;28;20411;-63
2021/08/12 00:23:28;;;;;;;0.30;0.30;;;;;;;;;;5092380;28;20785;-65
2021/08/12 00:25:56;;;;;;;0.30;0.30;;;;;;;;;;5092281;28;20980;-64
2021/08/12 00:28:22;;;;;;;0.30;0.30;;;;;;;;;;5074283;28;20440;-65
2021/08/12 00:30:48;;;;;;;0.30;0.30;;;;;;;;;;5092111;28;20431;-64
2021/08/12 00:33:14;;;;;;;0.30;0.30;;;;;;;;;;5092113;28;20405;-63
2021/08/12 00:35:40;;;;;;;0.30;0.30;;;;;;;;;;5092087;28;20412;-65
2021/08/12 00:38:06;;;;;;;0.30;0.30;;;;;;;;;;5091235;28;20424;-64
2021/08/12 00:40:32;;;;;;;0.30;0.30;;;;;;;;;;5091816;28;20407;-64
2021/08/12 00:42:59;;;;;;;0.30;0.30;;;;;;;;;;5091986;28;20406;-64
2021/08/12 00:45:25;;;;;;;0.30;0.30;;;;;;;;;;5073720;28;20442;-64
2021/08/12 00:47:51;;;;;;;0.30;0.30;;;;;;;;;;5091819;28;20462;-64
2021/08/12 00:50:19;;;;;;;0.30;0.20;;;;;;;;;;5091565;28;20444;-64
2021/08/12 00:52:45;;;;;;;0.30;0.30;;;;;;;;;;5091867;28;20383;-64
2021/08/12 00:55:11;;;;;;;0.30;0.30;;;;;;;;;;5091807;28;20401;-63
2021/08/12 00:57:37;;;;;;;0.30;0.20;;;;;;;;;;5091714;28;20436;-63
2021/08/12 01:00:04;;;;;;;0.30;0.20;;;;;;;;;;5091462;28;20388;-65
2021/08/12 01:02:30;;;;;;;0.30;0.30;;;;;;;;;;5091702;28;20409;-64
2021/08/12 01:04:56;;;;;;;0.30;0.30;;;;;;;;;;5091681;28;20386;-65
2021/08/12 01:07:22;;;;;;;0.30;0.30;;;;;;;;;;5091648;28;20423;-65
2021/08/12 01:10:07;;;;;;;0.30;0.30;;;;;;;;;;5091175;28;20431;-65
2021/08/12 01:12:33;;;;;;;0.30;0.20;;;;;;;;;;5091181;28;20390;-62
2021/08/12 01:15:06;;;;;;;0.30;0.30;;;;;;;;;;5091482;28;20388;-65
2021/08/12 01:17:36;;;;;;;0.30;0.30;;;;;;;;;;5055283;28;1030944;-64
2021/08/12 01:20:05;;;;;;;0.30;0.20;;;;;;;;;;5092037;28;20207;-64
2021/08/12 01:22:32;;;;;;;0.30;0.20;;;;;;;;;;5092169;28;20981;-65
2021/08/12 01:24:59;;;;;;;0.30;0.30;;;;;;;;;;5092057;28;20419;-63
2021/08/12 01:27:30;;;;;;;0.30;0.30;;;;;;;;;;5091925;28;20429;-65
2021/08/12 01:30:06;;;;;;;0.30;0.30;;;;;;;;;;5091857;28;20460;-64
2021/08/12 01:32:47;;;;;;;0.30;0.20;;;;;;;;;;5091980;28;20554;-64
2021/08/12 01:35:14;;;;;;;0.30;0.30;;;;;;;;;;5092053;28;20462;-65
2021/08/12 01:37:46;;;;;;;0.30;0.20;;;;;;;;;;5091741;28;20494;-64
2021/08/12 01:40:13;;;;;;;0.30;0.30;;;;;;;;;;5091874;28;20387;-64
2021/08/12 01:42:39;;;;;;;0.30;0.30;;;;;;;;;;5091319;28;20782;-63
2021/08/12 01:45:06;;;;;;;0.30;0.30;;;;;;;;;;5091766;28;20487;-64
2021/08/12 01:47:33;;;;;;;0.30;0.30;;;;;;;;;;5091719;28;20428;-66
2021/08/12 01:49:59;;;;;;;0.30;0.30;;;;;;;;;;5090641;28;20955;-64
2021/08/12 01:52:28;;;;;;;0.30;0.30;;;;;;;;;;5091799;28;20385;-64
2021/08/12 01:54:55;;;;;;;0.30;0.30;;;;;;;;;;5091777;28;20395;-64
2021/08/12 01:57:21;;;;;;;0.30;0.30;;;;;;;;;;5091711;28;20765;-63
2021/08/12 01:59:48;;;;;;;0.30;0.20;;;;;;;;;;5091435;28;20379;-64
2021/08/12 02:02:14;;;;;;;0.30;0.30;;;;;;;;;;5091552;28;20496;-65
2021/08/12 02:04:41;;;;;;;0.30;0.30;;;;;;;;;;5091660;28;20411;-63
2021/08/12 02:07:10;;;;;;;0.30;0.20;;;;;;;;;;5091551;28;20379;-64
2021/08/12 02:09:36;;;;;;;0.30;0.30;;;;;;;;;;5091563;28;21003;-64
2021/08/12 02:12:05;;;;;;;0.30;0.30;;;;;;;;;;5091535;28;20404;-63
2021/08/12 02:14:35;;;;;;;0.30;0.30;;;;;;;;;;5091506;28;20397;-63
2021/08/12 02:17:01;;;;;;;0.30;0.30;;;;;;;;;;5091248;28;20411;-64
2021/08/12 02:19:27;;;;;;;0.30;0.30;;;;;;;;;;5091322;28;20409;-63
2021/08/12 02:22:13;;;;;;;0.30;0.20;;;;;;;;;;5073828;28;20412;-63
2021/08/12 02:24:42;;;;;;;0.30;0.30;;;;;;;;;;5091589;28;20892;-65
2021/08/12 02:27:09;;;;;;;0.30;0.30;;;;;;;;;;5091703;28;20472;-63
2021/08/12 02:29:36;;;;;;;0.30;0.30;;;;;;;;;;5091195;28;20456;-65
2021/08/12 02:32:05;;;;;;;0.30;0.20;;;;;;;;;;5091487;28;20418;-65
2021/08/12 02:34:31;;;;;;;0.30;0.20;;;;;;;;;;5091519;28;20401;-65
2021/08/12 02:36:58;;;;;;;0.30;0.30;;;;;;;;;;5091425;28;20420;-65
2021/08/12 02:39:25;;;;;;;0.30;0.30;;;;;;;;;;5091179;28;20818;-65
2021/08/12 02:41:52;;;;;;;0.30;0.30;;;;;;;;;;5091655;28;20870;-65
2021/08/12 02:44:18;;;;;;;0.30;0.30;;;;;;;;;;5091463;28;20375;-64
2021/08/12 02:46:44;;;;;;;0.30;0.20;;;;;;;;;;5091463;28;20408;-65
2021/08/12 02:49:10;;;;;;;0.30;0.30;;;;;;;;;;5090941;28;20424;-65
2021/08/12 02:51:39;;;;;;;0.30;0.30;;;;;;;;;;5073194;28;20408;-65
2021/08/12 02:54:05;;;;;;;0.30;0.30;;;;;;;;;;5091530;28;20447;-64
2021/08/12 02:56:32;;;;;;;0.30;0.30;;;;;;;;;;5091537;28;20403;-64
2021/08/12 02:58:58;;;;;;;0.30;0.20;;;;;;;;;;5091038;28;20410;-64
2021/08/12 03:01:24;;;;;;;0.30;0.30;;;;;;;;;;5093603;28;20386;-63
2021/08/12 03:03:51;;;;;;;0.30;0.30;;;;;;;;;;5095024;28;20462;-64
2021/08/12 03:06:19;;;;;;;0.30;0.20;;;;;;;;;;5094920;28;20381;-65
2021/08/12 03:08:46;;;;;;;0.30;0.20;;;;;;;;;;5094694;28;20826;-64
2021/08/12 03:11:14;;;;;;;0.30;0.30;;;;;;;;;;5094879;28;20551;-64
2021/08/12 03:13:40;;;;;;;0.30;0.30;;;;;;;;;;5095184;28;20923;-63
2021/08/12 03:16:06;;;;;;;0.30;0.30;;;;;;;;;;5094777;28;20415;-65
2021/08/12 03:18:33;;;;;;;0.30;0.30;;;;;;;;;;5094382;28;20508;-63
2021/08/12 03:21:09;;;;;;;0.30;0.30;;;;;;;;;;5094632;28;20447;-65
2021/08/12 03:23:35;;;;;;;0.30;0.30;;;;;;;;;;5094747;28;20408;-64
2021/08/12 03:26:02;;;;;;;0.30;0.30;;;;;;;;;;5094975;28;20404;-63
2021/08/12 03:28:28;;;;;;;0.30;0.30;;;;;;;;;;5095723;28;20503;-64
2021/08/12 03:30:54;;;;;;;0.30;0.30;;;;;;;;;;5094987;28;20462;-64
2021/08/12 03:33:21;;;;;;;0.30;0.20;;;;;;;;;;5095313;28;20393;-64
2021/08/12 03:35:47;;;;;;;0.30;0.30;;;;;;;;;;5094965;28;20379;-65
2021/08/12 03:38:13;;;;;;;0.30;0.30;;;;;;;;;;5094817;28;20421;-64
2021/08/12 03:40:39;;;;;;;0.30;0.20;;;;;;;;;;5094497;28;20411;-64
2021/08/12 03:43:05;;;;;;;0.30;0.30;;;;;;;;;;5094490;28;20499;-64
2021/08/12 03:45:31;;;;;;;0.30;0.20;;;;;;;;;;5095012;28;20407;-64
2021/08/12 03:47:57;;;;;;;0.30;0.20;;;;;;;;;;5095233;28;20421;-65
2021/08/12 03:50:23;;;;;;;0.30;0.30;;;;;;;;;;5094519;28;20507;-65
2021/08/12 03:52:49;;;;;;;0.30;0.30;;;;;;;;;;5094329;28;20418;-65
2021/08/12 03:55:15;;;;;;;0.30;0.30;;;;;;;;;;5094251;28;20432;-62
2021/08/12 03:57:42;;;;;;;0.30;0.23;;;;;;;;;;5093787;28;20893;-63
2021/08/12 04:00:08;;;;;;;0.30;0.30;;;;;;;;;;5093785;28;20412;-64
2021/08/12 04:02:34;;;;;;;0.30;0.30;;;;;;;;;;5093957;28;20409;-65
2021/08/12 04:05:00;;;;;;;0.30;0.30;;;;;;;;;;5093903;28;20467;-65
2021/08/12 04:07:26;;;;;;;0.30;0.30;;;;;;;;;;5093707;28;20907;-64
2021/08/12 04:09:52;;;;;;;0.30;0.30;;;;;;;;;;5093389;28;20452;-65
2021/08/12 04:12:18;;;;;;;0.30;0.30;;;;;;;;;;5092728;28;20397;-64
2021/08/12 04:14:44;;;;;;;0.30;0.20;;;;;;;;;;5093597;28;20918;-65
2021/08/12 04:17:10;;;;;;;0.30;0.30;;;;;;;;;;5093260;28;20408;-65
2021/08/12 04:19:36;;;;;;;0.30;0.30;;;;;;;;;;5098263;22;20497;-62
2021/08/12 04:22:02;;;;;;;0.30;0.30;;;;;;;;;;5073009;28;20776;-62
2021/08/12 04:24:28;;;;;;;0.30;0.20;;;;;;;;;;5073012;28;20405;-62
2021/08/12 04:26:54;;;;;;;0.30;0.30;;;;;;;;;;5073146;28;20183;-62
2021/08/12 04:29:20;;;;;;;0.30;0.30;;;;;;;;;;5072493;28;20527;-62
2021/08/12 04:31:46;;;;;;;0.30;0.30;;;;;;;;;;5072921;28;20432;-62
2021/08/12 04:34:12;;;;;;;0.30;0.30;;;;;;;;;;5072796;28;20402;-62
2021/08/12 04:36:39;;;;;;;0.30;0.30;;;;;;;;;;5072749;28;20388;-63
2021/08/12 04:39:05;;;;;;;0.30;0.30;;;;;;;;;;5072374;28;20445;-62
2021/08/12 04:41:31;;;;;;;0.30;0.30;;;;;;;;;;5072625;28;20412;-62
2021/08/12 04:43:57;;;;;;;0.30;0.30;;;;;;;;;;5072585;28;20896;-62
2021/08/12 04:46:23;;;;;;;0.30;0.30;;;;;;;;;;5072543;28;20416;-62
2021/08/12 04:48:49;;;;;;;0.30;0.30;;;;;;;;;;5071853;28;20469;-62
2021/08/12 04:51:15;;;;;;;0.30;0.30;;;;;;;;;;5072079;28;20499;-62
2021/08/12 04:53:41;;;;;;;0.30;0.30;;;;;;;;;;5072209;28;20413;-64
2021/08/12 04:56:07;;;;;;;0.30;0.30;;;;;;;;;;5066287;28;20437;-64
2021/08/12 04:58:33;;;;;;;0.30;0.30;;;;;;;;;;5052133;28;20413;-62
2021/08/12 05:00:59;;;;;;;0.30;0.20;;;;;;;;;;5062155;28;20764;-62
2021/08/12 05:03:25;;;;;;;0.30;0.30;;;;;;;;;;5072233;28;20412;-62
2021/08/12 05:06:04;;;;;;;0.30;0.20;;;;;;;;;;5072007;28;20433;-62
2021/08/12 05:08:30;;;;;;;0.30;0.20;;;;;;;;;;5070816;28;20426;-62
2021/08/12 05:10:57;;;;;;;0.30;0.20;;;;;;;;;;5053891;28;20443;-62
2021/08/12 05:13:23;;;;;;;0.30;0.30;;;;;;;;;;5057279;28;20879;-62
2021/08/12 05:15:49;;;;;;;0.30;0.30;;;;;;;;;;5077848;28;20390;-62
2021/08/12 05:18:15;;;;;;;0.30;0.30;;;;;;;;;;5078812;28;20420;-62
2021/08/12 05:20:41;;;;;;;0.30;0.30;;;;;;;;;;5071951;28;20391;-62
2021/08/12 05:23:07;;;;;;;0.30;0.30;;;;;;;;;;5076227;28;20807;-61
2021/08/12 05:25:33;;;;;;;0.30;0.20;;;;;;;;;;5071534;28;20435;-62
2021/08/12 05:27:59;;;;;;;0.30;0.30;;;;;;;;;;5071546;28;20479;-62
2021/08/12 05:30:25;;;;;;;0.30;0.30;;;;;;;;;;5071491;28;20955;-62
2021/08/12 05:32:51;;;;;;;0.30;0.30;;;;;;;;;;5071780;28;20401;-62
2021/08/12 05:35:17;;;;;;;0.30;0.30;;;;;;;;;;5071782;28;20409;-62
2021/08/12 05:37:43;;;;;;;0.30;0.30;;;;;;;;;;5071702;28;20463;-62
2021/08/12 05:40:09;;;;;;;0.30;0.30;;;;;;;;;;5071522;28;20413;-62
2021/08/12 05:42:35;;;;;;;0.30;0.20;;;;;;;;;;5071628;28;20855;-62
2021/08/12 05:45:01;;;;;;;0.30;0.30;;;;;;;;;;5070665;28;20465;-62
2021/08/12 05:47:27;;;;;;;0.30;0.20;;;;;;;;;;5071106;28;20436;-62
2021/08/12 05:49:53;;;;;;;0.30;0.20;;;;;;;;;;5073711;28;20431;-62
2021/08/12 05:52:19;;;;;;;0.30;0.30;;;;;;;;;;5071286;28;21032;-62
2021/08/12 05:54:45;;;;;;;0.30;0.30;;;;;;;;;;5070655;28;20397;-62
2021/08/12 05:57:11;;;;;;;0.30;0.20;;;;;;;;;;5068332;28;20928;-63
2021/08/12 05:59:37;;;;;;;0.30;0.20;;;;;;;;;;5070420;28;20480;-62
2021/08/12 06:02:03;;;;;;;0.30;0.30;;;;;;;;;;5053358;28;20417;-62
2021/08/12 06:04:29;;;;;;;0.30;0.30;;;;;;;;;;5071439;28;20506;-63
2021/08/12 06:06:55;;;;;;;0.30;0.20;;;;;;;;;;5071066;28;20430;-63
2021/08/12 06:09:21;;;;;;;0.30;0.30;;;;;;;;;;5070221;28;20948;-62
2021/08/12 06:11:48;;;;;;;0.30;0.20;;;;;;;;;;5069659;28;20426;-62
2021/08/12 06:14:14;;;;;;;0.30;0.20;;;;;;;;;;5060134;28;20415;-62
2021/08/12 06:16:40;;;;;;;0.30;0.30;;;;;;;;;;5069799;28;20464;-62
2021/08/12 06:19:06;;;;;;;0.30;0.20;;;;;;;;;;5070750;28;20443;-63
2021/08/12 06:21:32;;;;;;;0.30;0.20;;;;;;;;;;5069014;28;20421;-63
2021/08/12 06:23:58;;;;;;;0.30;0.30;;;;;;;;;;5071076;28;20410;-63
2021/08/12 06:26:24;;;;;;;0.30;0.30;;;;;;;;;;5070810;28;20450;-62
2021/08/12 06:28:51;;;;;;;0.30;0.20;;;;;;;;;;5069755;28;20419;-63
2021/08/12 06:31:17;;;;;;;0.30;0.20;;;;;;;;;;5070801;28;20453;-62
2021/08/12 06:33:43;;;;;;;0.30;0.20;;;;;;;;;;5070858;28;20396;-63
2021/08/12 06:36:09;;;;;;;0.30;0.30;;;;;;;;;;5072649;28;20389;-63
2021/08/12 06:38:35;;;;;;;0.30;0.30;;;;;;;;;;5073744;28;20423;-63
2021/08/12 06:41:01;;;;;;;0.30;0.20;;;;;;;;;;5073720;28;20430;-63
2021/08/12 06:43:27;;;;;;;0.30;0.30;;;;;;;;;;5073908;28;20386;-63
2021/08/12 06:45:53;;;;;;;0.30;0.20;;;;;;;;;;5074874;28;20927;-63
2021/08/12 06:48:19;;;;;;;0.30;0.20;;;;;;;;;;5073521;28;20425;-63
2021/08/12 06:50:45;;;;;;;0.30;0.20;;;;;;;;;;5074115;28;20452;-63
2021/08/12 06:53:11;;;;;;;0.30;0.30;;;;;;;;;;5074243;28;20418;-63
2021/08/12 06:55:38;;;;;;;0.30;0.20;;;;;;;;;;5074680;28;20401;-62
2021/08/12 06:58:04;;;;;;;0.30;0.20;;;;;;;;;;5074290;28;20467;-63
2021/08/12 07:00:30;;;;;;;0.30;0.27;;;;;;;;;;5074323;28;20384;-62
2021/08/12 07:02:56;;;;;;;0.30;0.30;;;;;;;;;;5073833;28;20462;-63
2021/08/12 07:05:22;;;;;;;0.30;0.20;;;;;;;;;;5074466;28;20440;-63
2021/08/12 07:07:48;;;;;;;0.30;0.30;;;;;;;;;;5074378;28;20492;-63
2021/08/12 07:10:14;;;;;;;0.30;0.20;;;;;;;;;;5074032;28;20990;-63
2021/08/12 07:12:41;;;;;;;0.30;0.20;;;;;;;;;;5074207;28;20752;-63
2021/08/12 07:15:07;;;;;;;0.30;0.20;;;;;;;;;;5073551;28;20406;-64
2021/08/12 07:17:33;;;;;;;0.30;0.30;;;;;;;;;;5073709;28;20402;-63
2021/08/12 07:19:59;;;;;;;0.30;0.30;;;;;;;;;;5075206;28;20419;-64
2021/08/12 07:22:25;;;;;;;0.30;0.30;;;;;;;;;;5077247;28;20757;-64
2021/08/12 07:24:51;;;;;;;0.30;0.30;;;;;;;;;;5075108;28;20501;-65
2021/08/12 07:27:18;;;;;;;0.30;0.20;;;;;;;;;;5073322;28;20466;-63
2021/08/12 07:29:44;;;;;;;0.30;0.20;;;;;;;;;;5073589;28;20453;-62
2021/08/12 07:32:10;;;;;;;0.30;0.20;;;;;;;;;;5073906;28;20885;-63
2021/08/12 07:34:37;;;;;;;0.30;0.20;;;;;;;;;;5073999;28;20490;-62
2021/08/12 07:37:03;;;;;;;0.30;0.20;;;;;;;;;;5073839;28;20412;-64
2021/08/12 07:39:29;;;;;;;0.30;0.30;;;;;;;;;;5061604;28;20442;-64
2021/08/12 07:41:55;;;;;;;0.30;0.20;;;;;;;;;;5053604;28;20407;-64
2021/08/12 07:44:21;;;;;;;0.30;0.20;;;;;;;;;;5053591;28;20407;-64
2021/08/12 07:46:47;;;;;;;0.30;0.20;;;;;;;;;;5052247;28;20751;-64
2021/08/12 07:49:13;;;;;;;0.30;0.30;;;;;;;;;;5052760;28;20451;-64
2021/08/12 07:51:39;;;;;;;0.30;0.20;;;;;;;;;;5053434;28;20501;-64
2021/08/12 07:54:05;;;;;;;0.30;0.20;;;;;;;;;;5053341;28;20399;-62
2021/08/12 07:56:31;;;;;;;0.30;0.20;;;;;;;;;;5053285;28;20398;-62
2021/08/12 07:58:57;;;;;;;0.30;0.30;;;;;;;;;;5052414;28;20876;-62
2021/08/12 08:01:23;;;;;;;0.30;0.20;;;;;;;;;;5053067;28;20784;-63
2021/08/12 08:03:49;;;;;;;0.30;0.20;;;;;;;;;;5052784;28;20402;-62
2021/08/12 08:06:15;;;;;;;0.30;0.20;;;;;;;;;;5053431;28;20396;-65
2021/08/12 08:08:41;;;;;;;0.30;0.30;;;;;;;;;;5034968;28;20447;-65
2021/08/12 08:11:08;;;;;;;0.30;0.20;;;;;;;;;;5052561;28;20484;-62
2021/08/12 08:13:34;;;;;;;0.30;0.20;;;;;;;;;;5052882;28;20897;-62
2021/08/12 08:16:00;;;;;;;0.30;0.20;;;;;;;;;;5052693;28;20407;-62
2021/08/12 08:18:26;;;;;;;0.30;0.20;;;;;;;;;;5052631;28;20780;-62
2021/08/12 08:20:52;;;;;;;0.20;0.20;;;;;;;;;;5052413;28;20820;-63
2021/08/12 08:23:18;;;;;;;0.20;0.20;;;;;;;;;;5052734;28;20498;-62
2021/08/12 08:25:44;;;;;;;0.20;0.20;;;;;;;;;;5052722;28;20464;-62
2021/08/12 08:28:10;;;;;;;0.20;0.20;;;;;;;;;;5052252;28;20422;-62
2021/08/12 08:30:37;;;;;;;0.20;0.20;;;;;;;;;;5052284;28;20468;-62
2021/08/12 08:33:03;;;;;;;0.20;0.20;;;;;;;;;;5052271;28;20914;-62
2021/08/12 08:35:29;;;;;;;0.30;0.20;;;;;;;;;;5052567;28;20404;-62
2021/08/12 08:37:59;;;;;;;0.20;0.20;;;;;;;;;;5052434;28;20511;-62
2021/08/12 08:40:26;;;;;;;0.20;0.20;;;;;;;;;;5052053;28;20418;-63
2021/08/12 08:42:52;;;;;;;0.20;0.20;;;;;;;;;;5052056;28;20520;-63
2021/08/12 08:45:26;;;;;;;0.20;0.20;;;;;;;;;;5034351;28;20411;-63
2021/08/12 08:47:52;;;;;;;0.20;0.20;;;;;;;;;;5052334;28;20546;-63
2021/08/12 08:50:19;;;;;;;0.20;0.20;;;;;;;;;;5052074;28;20454;-63
2021/08/12 08:52:46;;;;;;;0.20;0.20;;;;;;;;;;5051935;28;20881;-64
2021/08/12 08:55:23;;;;;;;0.20;0.20;;;;;;;;;;5051702;28;20438;-64
2021/08/12 08:57:50;;;;;;;0.20;0.20;;;;;;;;;;5051822;28;20406;-64
2021/08/12 09:00:16;;;;;;;0.20;0.20;;;;;;;;;;5051885;28;20492;-63
2021/08/12 09:02:44;;;;;;;0.20;0.20;;;;;;;;;;5051880;28;20407;-64
2021/08/12 09:05:10;;;;;;;0.20;0.20;;;;;;;;;;5033507;28;20422;-64
2021/08/12 09:07:37;;;;;;;0.20;0.20;;;;;;;;;;5051554;28;20450;-64
2021/08/12 09:10:03;;;;;;;0.20;0.20;;;;;;;;;;5051632;28;20583;-64
2021/08/12 09:12:31;;;;;;;0.20;0.20;;;;;;;;;;5051890;28;20834;-64
2021/08/12 09:15:04;;;;;;;0.20;0.20;;;;;;;;;;5051860;28;21281;-64
2021/08/12 09:17:30;;;;;;;0.20;0.20;;;;;;;;;;5051008;28;20411;-64
2021/08/12 09:20:10;;;;;;;0.20;0.20;;;;;;;;;;5051287;28;20488;-65
2021/08/12 09:22:49;;;;;;;0.20;0.20;;;;;;;;;;5050399;28;20980;-64
2021/08/12 09:25:15;;;;;;;0.20;0.20;;;;;;;;;;5051706;28;20398;-64
2021/08/12 09:27:41;;;;;;;0.20;0.20;;;;;;;;;;5033359;28;20460;-64
2021/08/12 09:30:12;;;;;;;0.20;0.20;;;;;;;;;;5051516;28;20489;-64
2021/08/12 09:32:45;;;;;;;0.20;0.20;;;;;;;;;;5051864;28;20394;-64
2021/08/12 09:35:11;;;;;;;0.20;0.20;;;;;;;;;;5050988;28;20438;-64
2021/08/12 09:37:37;;;;;;;0.20;0.20;;;;;;;;;;5055242;28;20472;-64
2021/08/12 09:40:04;;;;;;;0.20;0.20;;;;;;;;;;5070747;28;20410;-65
2021/08/12 09:42:30;;;;;;;0.20;0.20;;;;;;;;;;5071683;28;20993;-65
2021/08/12 09:44:56;;;;;;;0.20;0.20;;;;;;;;;;5071752;28;20414;-64
2021/08/12 09:47:24;;;;;;;0.20;0.20;;;;;;;;;;5071625;28;20917;-64
2021/08/12 09:49:55;;;;;;;0.20;0.20;;;;;;;;;;5070887;28;20503;-64
2021/08/12 09:52:28;;;;;;;0.20;0.20;;;;;;;;;;5071133;28;20441;-64
2021/08/12 09:54:58;;;;;;;0.20;0.20;;;;;;;;;;5071734;28;20963;-64
2021/08/12 09:57:25;;;;;;;0.20;0.20;;;;;;;;;;5071655;28;20402;-63
2021/08/12 09:59:51;;;;;;;0.20;0.20;;;;;;;;;;5071267;28;20429;-63
2021/08/12 10:02:18;;;;;;;0.20;0.20;;;;;;;;;;5070993;28;20410;-63
2021/08/12 10:04:44;;;;;;;0.20;0.20;;;;;;;;;;5070420;28;20405;-63
2021/08/12 10:07:30;;;;;;;0.20;0.20;;;;;;;;;;5071744;28;20916;-63
2021/08/12 10:09:56;;;;;;;0.20;0.20;;;;;;;;;;5060538;28;20614;-63
2021/08/12 10:12:34;;;;;;;0.20;0.20;;;;;;;;;;5075155;28;20808;-63
2021/08/12 10:15:00;;;;;;;0.20;0.20;;;;;;;;;;5075613;28;20423;-64
2021/08/12 10:17:27;;;;;;;0.20;0.20;;;;;;;;;;5075278;28;20402;-64
2021/08/12 10:19:53;;;;;;;0.20;0.20;;;;;;;;;;5097060;22;20962;-65
2021/08/12 10:22:19;;;;;;;0.20;0.20;;;;;;;;;;5074946;28;20896;-65
2021/08/12 10:24:46;;;;;;;0.20;0.20;;;;;;;;;;5075108;28;20463;-65
2021/08/12 10:27:13;;;;;;;0.20;0.20;;;;;;;;;;5075367;28;20393;-65
2021/08/12 10:29:40;;;;;;;0.20;0.20;;;;;;;;;;5074641;28;20465;-65
2021/08/12 10:32:06;;;;;;;0.20;0.20;;;;;;;;;;5075231;28;20441;-65
2021/08/12 10:34:33;;;;;;;0.20;0.20;;;;;;;;;;5074277;28;20441;-66
2021/08/12 10:36:59;;;;;;;0.20;0.20;;;;;;;;;;5073753;28;20442;-66
2021/08/12 10:39:25;;;;;;;0.20;0.20;;;;;;;;;;5074763;28;20417;-63
2021/08/12 10:41:52;;;;;;;0.20;0.20;;;;;;;;;;5074733;28;20503;-63
2021/08/12 10:44:19;;;;;;;0.20;0.20;;;;;;;;;;5075042;28;20892;-63
2021/08/12 10:46:45;;;;;;;0.20;0.20;;;;;;;;;;5074432;28;20416;-63
2021/08/12 10:49:23;;;;;;;0.20;0.20;;;;;;;;;;5074412;28;20482;-63
2021/08/12 10:51:51;;;;;;;0.20;0.20;;;;;;;;;;5074905;28;20498;-63
2021/08/12 10:54:19;;;;;;;0.20;0.20;;;;;;;;;;5074483;28;20446;-63
2021/08/12 10:56:46;;;;;;;0.20;0.20;;;;;;;;;;5074403;28;20777;-63
2021/08/12 10:59:12;;;;;;;0.20;0.20;;;;;;;;;;5074144;28;20434;-65
2021/08/12 11:01:41;;;;;;;0.20;0.20;;;;;;;;;;5074632;28;20972;-65
2021/08/12 11:04:07;;;;;;;0.20;0.20;;;;;;;;;;5070138;28;20495;-65
2021/08/12 11:06:44;;;;;;;0.20;0.20;;;;;;;;;;5054365;28;20773;-65
2021/08/12 11:09:11;;;;;;;0.20;0.20;;;;;;;;;;5053781;28;20430;-65
2021/08/12 11:11:37;;;;;;;0.20;0.20;;;;;;;;;;5054439;28;20509;-65
2021/08/12 11:14:04;;;;;;;0.20;0.20;;;;;;;;;;5054380;28;20414;-65
2021/08/12 11:16:42;;;;;;;0.20;0.20;;;;;;;;;;5054315;28;20406;-65
2021/08/12 11:19:08;;;;;;;0.20;0.20;;;;;;;;;;5053380;28;20805;-65
2021/08/12 11:21:38;;;;;;;0.20;0.20;;;;;;;;;;5053824;28;20422;-65
2021/08/12 11:24:07;;;;;;;0.20;0.20;;;;;;;;;;5054323;28;20404;-65
2021/08/12 11:26:59;;;;;;;0.20;0.20;;;;;;;;;;5054266;28;20411;-65
2021/08/12 11:29:27;;;;;;;0.20;0.20;;;;;;;;;;5053772;28;20478;-65
2021/08/12 11:32:02;;;;;;;0.20;0.20;;;;;;;;;;5053241;28;20451;-65
2021/08/12 11:34:28;;;;;;;0.20;0.20;;;;;;;;;;5054071;28;20418;-65
2021/08/12 11:37:14;;;;;;;0.20;0.20;;;;;;;;;;5054042;28;20403;-65
2021/08/12 11:39:47;;;;;;;0.20;0.20;;;;;;;;;;5053707;28;20432;-65
2021/08/12 11:42:20;;;;;;;0.20;0.20;;;;;;;;;;5053118;28;20407;-65
2021/08/12 11:44:50;;;;;;;0.20;0.20;;;;;;;;;;5054114;28;20785;-65
2021/08/12 11:47:16;;;;;;;0.20;0.20;;;;;;;;;;5053849;28;20401;-65
2021/08/12 11:49:52;;;;;;;0.20;0.20;;;;;;;;;;5053251;28;20457;-65
2021/08/12 11:52:29;;;;;;;0.20;0.20;;;;;;;;;;5053570;28;20436;-65
2021/08/12 11:54:59;;;;;;;0.20;0.20;;;;;;;;;;5053241;28;20405;-65
2021/08/12 11:57:44;;;;;;;0.20;0.20;;;;;;;;;;5053716;28;20412;-65
2021/08/12 12:00:15;;;;;;;0.20;0.20;;;;;;;;;;5053274;28;20836;-65
2021/08/12 12:02:45;;;;;;;0.20;0.20;;;;;;;;;;5053505;28;20491;-65
2021/08/12 12:05:11;;;;;;;0.20;0.20;;;;;;;;;;5053024;28;20441;-65
2021/08/12 12:07:56;;;;;;;0.20;0.20;;;;;;;;;;5053235;28;20745;-65
2021/08/12 12:10:26;;;;;;;0.20;0.20;;;;;;;;;;5053313;28;20496;-65
2021/08/12 12:12:53;;;;;;;0.20;0.20;;;;;;;;;;5053648;28;20467;-65
2021/08/12 12:15:35;;;;;;;0.20;0.20;;;;;;;;;;5052817;28;20979;-65
2021/08/12 12:18:01;;;;;;;0.20;0.20;;;;;;;;;;5052979;28;20421;-65
2021/08/12 12:20:28;;;;;;;0.20;0.20;;;;;;;;;;5052592;28;20479;-65
2021/08/12 12:23:01;;;;;;;0.20;0.20;;;;;;;;;;5053123;28;20414;-65
2021/08/12 12:25:28;;;;;;;0.20;0.20;;;;;;;;;;5052990;28;20424;-65
2021/08/12 12:27:55;;;;;;;0.20;0.20;;;;;;;;;;5052343;28;20406;-65
2021/08/12 12:30:22;;;;;;;0.20;0.20;;;;;;;;;;5052655;28;20453;-65
2021/08/12 12:32:59;;;;;;;0.20;0.20;;;;;;;;;;5051959;28;20411;-65
2021/08/12 12:35:25;;;;;;;0.20;0.20;;;;;;;;;;5052900;28;20777;-65
2021/08/12 12:37:51;;;;;;;0.20;0.20;;;;;;;;;;5052315;28;20896;-65
2021/08/12 12:40:18;;;;;;;0.20;0.20;;;;;;;;;;5052484;28;20483;-65
2021/08/12 12:42:45;;;;;;;0.20;0.20;;;;;;;;;;5052645;28;20910;-65
2021/08/12 12:45:12;;;;;;;0.20;0.20;;;;;;;;;;5052436;28;20422;-65
2021/08/12 12:47:38;;;;;;;0.20;0.20;;;;;;;;;;5052542;28;20414;-64
2021/08/12 12:50:05;;;;;;;0.20;0.20;;;;;;;;;;5051680;28;20456;-64
2021/08/12 12:52:32;;;;;;;0.20;0.20;;;;;;;;;;5052496;28;20455;-64
2021/08/12 12:54:58;;;;;;;0.20;0.20;;;;;;;;;;5052779;28;20864;-64
2021/08/12 12:57:33;;;;;;;0.20;0.20;;;;;;;;;;5052299;28;20522;-64
2021/08/12 13:00:00;;;;;;;0.20;0.20;;;;;;;;;;5051597;28;20458;-64
2021/08/12 13:02:26;;;;;;;0.20;0.20;;;;;;;;;;5052318;28;20410;-64
2021/08/12 13:04:59;;;;;;;0.20;0.20;;;;;;;;;;5052234;28;20494;-64
2021/08/12 13:07:25;;;;;;;0.20;0.20;;;;;;;;;;5052151;28;20405;-64
2021/08/12 13:09:51;;;;;;;0.20;0.20;;;;;;;;;;5051814;28;20942;-64
2021/08/12 13:12:30;;;;;;;0.20;0.20;;;;;;;;;;5051781;28;20407;-64
2021/08/12 13:15:12;;;;;;;0.20;0.20;;;;;;;;;;5052188;28;20906;-64
2021/08/12 13:17:38;;;;;;;0.20;0.20;;;;;;;;;;5052087;28;20493;-64
2021/08/12 13:20:09;;;;;;;0.20;0.20;;;;;;;;;;5051268;28;20489;-64
2021/08/12 13:22:39;;;;;;;0.20;0.20;;;;;;;;;;5051413;28;20439;-64
2021/08/12 13:25:13;;;;;;;0.20;0.20;;;;;;;;;;5051814;28;20411;-64
2021/08/12 13:27:43;;;;;;;0.20;0.20;;;;;;;;;;5051752;28;20407;-64
2021/08/12 13:30:09;;;;;;;0.20;0.20;;;;;;;;;;5051496;28;20803;-64
2021/08/12 13:32:36;;;;;;;0.20;0.20;;;;;;;;;;5033773;28;20473;-64
2021/08/12 13:35:02;;;;;;;0.20;0.20;;;;;;;;;;5051303;28;20409;-64
2021/08/12 13:37:28;;;;;;;0.20;0.20;;;;;;;;;;5051576;28;20903;-64
2021/08/12 13:39:54;;;;;;;0.20;0.20;;;;;;;;;;5051281;28;20440;-64
2021/08/12 13:42:21;;;;;;;0.20;0.20;;;;;;;;;;5051746;28;20501;-64
2021/08/12 13:44:47;;;;;;;0.20;0.20;;;;;;;;;;5050976;28;20406;-64
2021/08/12 13:47:13;;;;;;;0.20;0.20;;;;;;;;;;5051605;28;20423;-64
2021/08/12 13:49:39;;;;;;;0.20;0.20;;;;;;;;;;5051154;28;20463;-64
2021/08/12 13:52:06;;;;;;;0.20;0.20;;;;;;;;;;5051546;28;20782;-64
2021/08/12 13:54:34;;;;;;;0.20;0.20;;;;;;;;;;5051642;28;20869;-64
2021/08/12 13:57:01;;;;;;;0.20;0.20;;;;;;;;;;5050809;28;20426;-64
2021/08/12 13:59:27;;;;;;;0.20;0.20;;;;;;;;;;5051196;28;20504;-64
2021/08/12 14:01:54;;;;;;;0.20;0.20;;;;;;;;;;5051403;28;20493;-64
2021/08/12 14:04:21;;;;;;;0.20;0.20;;;;;;;;;;5051321;28;20522;-64
2021/08/12 14:06:47;;;;;;;0.20;0.20;;;;;;;;;;5053161;28;20416;-64
2021/08/12 14:09:14;;;;;;;0.20;0.20;;;;;;;;;;5050754;28;20461;-64
2021/08/12 14:11:40;;;;;;;0.20;0.20;;;;;;;;;;5051355;28;20925;-64
2021/08/12 14:14:06;;;;;;;0.20;0.20;;;;;;;;;;5033494;28;20457;-64
2021/08/12 14:16:33;;;;;;;0.20;0.20;;;;;;;;;;5052371;28;20412;-64
2021/08/12 14:18:59;;;;;;;0.20;0.20;;;;;;;;;;5055136;28;20448;-64
2021/08/12 14:21:25;;;;;;;0.20;0.20;;;;;;;;;;5054118;28;20414;-64
2021/08/12 14:23:51;;;;;;;0.20;0.20;;;;;;;;;;5051371;28;20447;-64
2021/08/12 14:26:19;;;;;;;0.20;0.20;;;;;;;;;;5051329;28;20496;-64
2021/08/12 14:28:45;;;;;;;0.20;0.20;;;;;;;;;;5050730;28;20427;-64
2021/08/12 14:31:11;;;;;;;0.20;0.20;;;;;;;;;;5050868;28;20790;-64
2021/08/12 14:33:38;;;;;;;0.20;0.20;;;;;;;;;;5050965;28;20411;-64
2021/08/12 14:36:04;;;;;;;0.20;0.20;;;;;;;;;;5051271;28;20405;-64
2021/08/12 14:38:31;;;;;;;0.20;0.20;;;;;;;;;;5050887;28;20423;-64
2021/08/12 14:40:59;;;;;;;0.20;0.20;;;;;;;;;;5050645;28;20406;-64
2021/08/12 14:43:26;;;;;;;0.20;0.20;;;;;;;;;;5051174;28;20398;-64
2021/08/12 14:45:52;;;;;;;0.20;0.20;;;;;;;;;;5050760;28;20461;-64